sensor_id;sensor_type;location;lat;lon;timestamp;temperature;humidity
19359;DHT22;9815;52.334;20.890;2023-06-24T00:01:10;18.40;99.90
19359;DHT22;9815;52.334;20.890;2023-06-24T00:03:44;18.50;99.90
19359;DHT22;9815;52.334;20.890;2023-06-24T00:06:16;18.40;99.90
19359;DHT22;9815;52.334;20.890;2023-06-24T00:08:46;18.40;99.90
19359;DHT22;9815;52.334;20.890;2023-06-24T00:11:20;18.40;99.90
19359;DHT22;9815;52.334;20.890;2023-06-24T00:13:52;18.40;99.90
19359;DHT22;9815;52.334;20.890;2023-06-24T00:16:22;18.40;99.90
19359;DHT22;9815;52.334;20.890;2023-06-24T00:18:57;18.50;99.90
19359;DHT22;9815;52.334;20.890;2023-06-24T00:21:28;18.40;99.90
19359;DHT22;9815;52.334;20.890;2023-06-24T00:24:00;18.40;99.90
19359;DHT22;9815;52.334;20.890;2023-06-24T00:26:33;18.30;99.90
19359;DHT22;9815;52.334;20.890;2023-06-24T00:29:05;18.40;99.90
19359;DHT22;9815;52.334;20.890;2023-06-24T00:31:35;18.40;99.90
19359;DHT22;9815;52.334;20.890;2023-06-24T00:34:10;18.40;99.90
19359;DHT22;9815;52.334;20.890;2023-06-24T00:36:41;18.40;99.90
19359;DHT22;9815;52.334;20.890;2023-06-24T00:39:15;18.30;99.90
19359;DHT22;9815;52.334;20.890;2023-06-24T00:41:44;18.30;99.90
19359;DHT22;9815;52.334;20.890;2023-06-24T00:44:16;18.30;99.90
19359;DHT22;9815;52.334;20.890;2023-06-24T00:46:51;18.30;99.90
19359;DHT22;9815;52.334;20.890;2023-06-24T00:49:26;18.30;99.90
19359;DHT22;9815;52.334;20.890;2023-06-24T00:51:56;18.30;99.90
19359;DHT22;9815;52.334;20.890;2023-06-24T00:54:28;18.30;99.90
19359;DHT22;9815;52.334;20.890;2023-06-24T00:57:00;18.30;99.90
19359;DHT22;9815;52.334;20.890;2023-06-24T00:59:32;18.20;99.90
19359;DHT22;9815;52.334;20.890;2023-06-24T01:02:02;18.20;99.90
19359;DHT22;9815;52.334;20.890;2023-06-24T01:04:34;18.10;99.90
19359;DHT22;9815;52.334;20.890;2023-06-24T01:07:05;18.10;99.90
19359;DHT22;9815;52.334;20.890;2023-06-24T01:09:37;18.10;99.90
19359;DHT22;9815;52.334;20.890;2023-06-24T01:12:08;18.00;99.90
19359;DHT22;9815;52.334;20.890;2023-06-24T01:14:43;18.00;99.90
19359;DHT22;9815;52.334;20.890;2023-06-24T01:17:16;17.90;99.90
19359;DHT22;9815;52.334;20.890;2023-06-24T01:20:04;17.90;99.90
19359;DHT22;9815;52.334;20.890;2023-06-24T01:23:02;17.90;99.90
19359;DHT22;9815;52.334;20.890;2023-06-24T01:25:48;17.90;99.90
19359;DHT22;9815;52.334;20.890;2023-06-24T01:28:43;17.80;99.90
19359;DHT22;9815;52.334;20.890;2023-06-24T01:31:33;17.90;99.90
19359;DHT22;9815;52.334;20.890;2023-06-24T01:34:10;17.80;99.90
19359;DHT22;9815;52.334;20.890;2023-06-24T01:36:42;17.80;99.90
19359;DHT22;9815;52.334;20.890;2023-06-24T01:39:17;17.80;99.90
19359;DHT22;9815;52.334;20.890;2023-06-24T01:41:54;17.70;99.90
19359;DHT22;9815;52.334;20.890;2023-06-24T01:44:26;17.60;99.90
19359;DHT22;9815;52.334;20.890;2023-06-24T01:47:00;17.70;99.90
19359;DHT22;9815;52.334;20.890;2023-06-24T01:49:34;17.70;99.90
19359;DHT22;9815;52.334;20.890;2023-06-24T01:52:08;17.70;99.90
19359;DHT22;9815;52.334;20.890;2023-06-24T01:54:50;17.60;99.90
19359;DHT22;9815;52.334;20.890;2023-06-24T01:57:33;17.60;99.90
19359;DHT22;9815;52.334;20.890;2023-06-24T02:00:04;17.60;99.90
19359;DHT22;9815;52.334;20.890;2023-06-24T02:02:50;17.60;99.90
19359;DHT22;9815;52.334;20.890;2023-06-24T02:05:21;17.60;99.90
19359;DHT22;9815;52.334;20.890;2023-06-24T02:07:56;17.60;99.90
19359;DHT22;9815;52.334;20.890;2023-06-24T02:10:26;17.60;99.90
19359;DHT22;9815;52.334;20.890;2023-06-24T02:12:57;17.60;99.90
19359;DHT22;9815;52.334;20.890;2023-06-24T02:15:29;17.60;99.90
19359;DHT22;9815;52.334;20.890;2023-06-24T02:18:07;17.60;99.90
19359;DHT22;9815;52.334;20.890;2023-06-24T02:20:42;17.50;99.90
19359;DHT22;9815;52.334;20.890;2023-06-24T02:23:16;17.60;99.90
19359;DHT22;9815;52.334;20.890;2023-06-24T02:25:48;17.60;99.90
19359;DHT22;9815;52.334;20.890;2023-06-24T02:28:26;17.60;99.90
19359;DHT22;9815;52.334;20.890;2023-06-24T02:31:03;17.60;99.90
19359;DHT22;9815;52.334;20.890;2023-06-24T02:33:34;17.60;99.90
19359;DHT22;9815;52.334;20.890;2023-06-24T02:36:05;17.60;99.90
19359;DHT22;9815;52.334;20.890;2023-06-24T02:38:34;17.60;99.90
19359;DHT22;9815;52.334;20.890;2023-06-24T02:41:04;17.60;99.90
19359;DHT22;9815;52.334;20.890;2023-06-24T02:43:33;17.60;99.90
19359;DHT22;9815;52.334;20.890;2023-06-24T02:46:05;17.50;99.90
19359;DHT22;9815;52.334;20.890;2023-06-24T02:48:38;17.60;99.90
19359;DHT22;9815;52.334;20.890;2023-06-24T02:51:11;17.50;99.90
19359;DHT22;9815;52.334;20.890;2023-06-24T02:53:43;17.50;99.90
19359;DHT22;9815;52.334;20.890;2023-06-24T02:56:21;17.50;99.90
19359;DHT22;9815;52.334;20.890;2023-06-24T02:58:53;17.40;99.90
19359;DHT22;9815;52.334;20.890;2023-06-24T03:01:27;17.50;99.90
19359;DHT22;9815;52.334;20.890;2023-06-24T03:04:08;17.50;99.90
19359;DHT22;9815;52.334;20.890;2023-06-24T03:06:41;17.50;99.90
19359;DHT22;9815;52.334;20.890;2023-06-24T03:09:12;17.40;99.90
19359;DHT22;9815;52.334;20.890;2023-06-24T03:11:46;17.50;99.90
19359;DHT22;9815;52.334;20.890;2023-06-24T03:14:23;17.50;99.90
19359;DHT22;9815;52.334;20.890;2023-06-24T03:16:56;17.50;99.90
19359;DHT22;9815;52.334;20.890;2023-06-24T03:19:34;17.50;99.90
19359;DHT22;9815;52.334;20.890;2023-06-24T03:22:09;17.50;99.90
19359;DHT22;9815;52.334;20.890;2023-06-24T03:24:43;17.60;99.90
19359;DHT22;9815;52.334;20.890;2023-06-24T03:27:13;17.60;99.90
19359;DHT22;9815;52.334;20.890;2023-06-24T03:29:47;17.60;99.90
19359;DHT22;9815;52.334;20.890;2023-06-24T03:32:18;17.60;99.90
19359;DHT22;9815;52.334;20.890;2023-06-24T03:34:54;17.60;99.90
19359;DHT22;9815;52.334;20.890;2023-06-24T03:37:24;17.70;99.90
19359;DHT22;9815;52.334;20.890;2023-06-24T03:39:55;17.60;99.90
19359;DHT22;9815;52.334;20.890;2023-06-24T03:42:26;17.70;99.90
19359;DHT22;9815;52.334;20.890;2023-06-24T03:44:58;17.70;99.90
19359;DHT22;9815;52.334;20.890;2023-06-24T03:47:28;17.70;99.90
19359;DHT22;9815;52.334;20.890;2023-06-24T03:50:05;17.80;99.90
19359;DHT22;9815;52.334;20.890;2023-06-24T03:52:40;17.80;99.90
19359;DHT22;9815;52.334;20.890;2023-06-24T03:55:17;17.80;99.90
19359;DHT22;9815;52.334;20.890;2023-06-24T03:57:54;17.90;99.90
19359;DHT22;9815;52.334;20.890;2023-06-24T04:00:26;17.90;99.90
19359;DHT22;9815;52.334;20.890;2023-06-24T04:03:05;17.90;99.90
19359;DHT22;9815;52.334;20.890;2023-06-24T04:05:41;17.90;99.90
19359;DHT22;9815;52.334;20.890;2023-06-24T04:08:11;18.00;99.90
19359;DHT22;9815;52.334;20.890;2023-06-24T04:10:41;18.10;99.90
19359;DHT22;9815;52.334;20.890;2023-06-24T04:13:30;18.10;99.90
19359;DHT22;9815;52.334;20.890;2023-06-24T04:16:01;18.30;99.90
19359;DHT22;9815;52.334;20.890;2023-06-24T04:18:31;18.30;99.90
19359;DHT22;9815;52.334;20.890;2023-06-24T04:21:17;18.40;99.90
19359;DHT22;9815;52.334;20.890;2023-06-24T04:23:51;18.40;99.90
19359;DHT22;9815;52.334;20.890;2023-06-24T04:26:24;18.40;99.90
19359;DHT22;9815;52.334;20.890;2023-06-24T04:28:54;18.50;99.90
19359;DHT22;9815;52.334;20.890;2023-06-24T04:31:24;18.60;99.90
19359;DHT22;9815;52.334;20.890;2023-06-24T04:33:57;18.70;99.90
19359;DHT22;9815;52.334;20.890;2023-06-24T04:36:29;18.70;99.90
19359;DHT22;9815;52.334;20.890;2023-06-24T04:38:59;18.80;99.90
19359;DHT22;9815;52.334;20.890;2023-06-24T04:41:29;18.80;99.90
19359;DHT22;9815;52.334;20.890;2023-06-24T04:44:02;18.80;99.90
19359;DHT22;9815;52.334;20.890;2023-06-24T04:46:34;18.80;99.90
19359;DHT22;9815;52.334;20.890;2023-06-24T04:49:06;18.90;99.90
19359;DHT22;9815;52.334;20.890;2023-06-24T04:51:41;18.90;99.90
19359;DHT22;9815;52.334;20.890;2023-06-24T04:54:15;19.00;99.90
19359;DHT22;9815;52.334;20.890;2023-06-24T04:56:44;19.00;99.90
19359;DHT22;9815;52.334;20.890;2023-06-24T04:59:17;19.10;99.90
19359;DHT22;9815;52.334;20.890;2023-06-24T05:01:54;19.10;99.90
19359;DHT22;9815;52.334;20.890;2023-06-24T05:04:23;19.20;99.90
19359;DHT22;9815;52.334;20.890;2023-06-24T05:06:53;19.20;99.90
19359;DHT22;9815;52.334;20.890;2023-06-24T05:09:21;19.20;99.90
19359;DHT22;9815;52.334;20.890;2023-06-24T05:11:50;19.20;99.90
19359;DHT22;9815;52.334;20.890;2023-06-24T05:14:18;19.40;99.90
19359;DHT22;9815;52.334;20.890;2023-06-24T05:16:46;19.40;99.90
19359;DHT22;9815;52.334;20.890;2023-06-24T05:19:14;19.40;99.90
19359;DHT22;9815;52.334;20.890;2023-06-24T05:21:43;19.50;99.90
19359;DHT22;9815;52.334;20.890;2023-06-24T05:24:12;19.50;99.90
19359;DHT22;9815;52.334;20.890;2023-06-24T05:26:40;19.60;99.90
19359;DHT22;9815;52.334;20.890;2023-06-24T05:29:09;19.60;99.90
19359;DHT22;9815;52.334;20.890;2023-06-24T05:31:40;19.80;99.90
19359;DHT22;9815;52.334;20.890;2023-06-24T05:34:09;19.90;99.90
19359;DHT22;9815;52.334;20.890;2023-06-24T05:36:37;19.90;99.90
19359;DHT22;9815;52.334;20.890;2023-06-24T05:39:05;20.10;99.90
19359;DHT22;9815;52.334;20.890;2023-06-24T05:41:36;20.20;99.90
19359;DHT22;9815;52.334;20.890;2023-06-24T05:44:06;20.20;99.90
19359;DHT22;9815;52.334;20.890;2023-06-24T05:46:34;20.30;99.90
19359;DHT22;9815;52.334;20.890;2023-06-24T05:49:03;20.50;99.90
19359;DHT22;9815;52.334;20.890;2023-06-24T05:51:31;20.60;99.90
19359;DHT22;9815;52.334;20.890;2023-06-24T05:53:59;20.80;99.90
19359;DHT22;9815;52.334;20.890;2023-06-24T05:56:27;20.70;99.90
19359;DHT22;9815;52.334;20.890;2023-06-24T05:58:56;20.80;99.90
19359;DHT22;9815;52.334;20.890;2023-06-24T06:01:25;20.90;99.90
19359;DHT22;9815;52.334;20.890;2023-06-24T06:03:53;20.80;99.90
19359;DHT22;9815;52.334;20.890;2023-06-24T06:06:21;20.80;99.90
19359;DHT22;9815;52.334;20.890;2023-06-24T06:08:52;20.90;99.90
19359;DHT22;9815;52.334;20.890;2023-06-24T06:11:21;20.80;99.90
19359;DHT22;9815;52.334;20.890;2023-06-24T06:13:49;20.80;99.90
19359;DHT22;9815;52.334;20.890;2023-06-24T06:16:19;20.80;99.90
19359;DHT22;9815;52.334;20.890;2023-06-24T06:18:47;20.80;99.90
19359;DHT22;9815;52.334;20.890;2023-06-24T06:21:15;20.90;99.90
19359;DHT22;9815;52.334;20.890;2023-06-24T06:23:43;21.00;99.90
19359;DHT22;9815;52.334;20.890;2023-06-24T06:26:11;21.00;99.90
19359;DHT22;9815;52.334;20.890;2023-06-24T06:28:39;21.00;99.90
19359;DHT22;9815;52.334;20.890;2023-06-24T06:31:07;21.00;99.90
19359;DHT22;9815;52.334;20.890;2023-06-24T06:33:37;21.10;99.90
19359;DHT22;9815;52.334;20.890;2023-06-24T06:36:06;21.20;99.90
19359;DHT22;9815;52.334;20.890;2023-06-24T06:38:34;21.40;99.90
19359;DHT22;9815;52.334;20.890;2023-06-24T06:41:02;21.40;99.90
19359;DHT22;9815;52.334;20.890;2023-06-24T06:43:33;21.30;99.90
19359;DHT22;9815;52.334;20.890;2023-06-24T06:46:02;21.40;99.90
19359;DHT22;9815;52.334;20.890;2023-06-24T06:48:30;21.60;99.90
19359;DHT22;9815;52.334;20.890;2023-06-24T06:50:59;21.70;99.90
19359;DHT22;9815;52.334;20.890;2023-06-24T06:53:27;21.80;99.90
19359;DHT22;9815;52.334;20.890;2023-06-24T06:55:57;21.90;98.80
19359;DHT22;9815;52.334;20.890;2023-06-24T06:58:25;22.00;94.40
19359;DHT22;9815;52.334;20.890;2023-06-24T07:00:53;22.00;89.50
19359;DHT22;9815;52.334;20.890;2023-06-24T07:03:22;22.00;89.00
19359;DHT22;9815;52.334;20.890;2023-06-24T07:05:50;22.00;71.60
19359;DHT22;9815;52.334;20.890;2023-06-24T07:08:20;22.00;74.80
19359;DHT22;9815;52.334;20.890;2023-06-24T07:10:48;22.00;68.70
19359;DHT22;9815;52.334;20.890;2023-06-24T07:13:16;22.10;60.60
19359;DHT22;9815;52.334;20.890;2023-06-24T07:15:44;22.10;54.90
19359;DHT22;9815;52.334;20.890;2023-06-24T07:18:12;22.20;47.90
19359;DHT22;9815;52.334;20.890;2023-06-24T07:20:43;22.20;51.00
19359;DHT22;9815;52.334;20.890;2023-06-24T07:23:12;22.10;52.00
19359;DHT22;9815;52.334;20.890;2023-06-24T07:25:41;22.20;52.00
19359;DHT22;9815;52.334;20.890;2023-06-24T07:28:09;22.20;51.60
19359;DHT22;9815;52.334;20.890;2023-06-24T07:30:40;22.20;48.00
19359;DHT22;9815;52.334;20.890;2023-06-24T07:33:08;22.30;52.60
19359;DHT22;9815;52.334;20.890;2023-06-24T07:35:36;22.30;51.80
19359;DHT22;9815;52.334;20.890;2023-06-24T07:38:05;22.50;53.60
19359;DHT22;9815;52.334;20.890;2023-06-24T07:40:33;22.70;57.50
19359;DHT22;9815;52.334;20.890;2023-06-24T07:43:02;23.20;45.30
19359;DHT22;9815;52.334;20.890;2023-06-24T07:45:30;23.50;35.30
19359;DHT22;9815;52.334;20.890;2023-06-24T07:47:59;23.70;33.90
19359;DHT22;9815;52.334;20.890;2023-06-24T07:50:27;23.80;30.00
19359;DHT22;9815;52.334;20.890;2023-06-24T07:52:55;23.90;30.60
19359;DHT22;9815;52.334;20.890;2023-06-24T07:55:23;24.10;29.90
19359;DHT22;9815;52.334;20.890;2023-06-24T07:57:51;24.00;30.10
19359;DHT22;9815;52.334;20.890;2023-06-24T08:00:21;24.10;29.70
19359;DHT22;9815;52.334;20.890;2023-06-24T08:02:49;24.50;28.10
19359;DHT22;9815;52.334;20.890;2023-06-24T08:05:17;24.40;27.10
19359;DHT22;9815;52.334;20.890;2023-06-24T08:07:47;24.00;26.30
19359;DHT22;9815;52.334;20.890;2023-06-24T08:10:15;24.10;27.50
19359;DHT22;9815;52.334;20.890;2023-06-24T08:12:43;23.80;25.60
19359;DHT22;9815;52.334;20.890;2023-06-24T08:15:12;23.80;26.10
19359;DHT22;9815;52.334;20.890;2023-06-24T08:17:42;24.00;25.60
19359;DHT22;9815;52.334;20.890;2023-06-24T08:20:11;24.00;24.90
19359;DHT22;9815;52.334;20.890;2023-06-24T08:22:39;24.10;25.40
19359;DHT22;9815;52.334;20.890;2023-06-24T08:25:08;24.20;24.40
19359;DHT22;9815;52.334;20.890;2023-06-24T08:27:36;24.30;24.40
19359;DHT22;9815;52.334;20.890;2023-06-24T08:30:05;24.50;24.70
19359;DHT22;9815;52.334;20.890;2023-06-24T08:32:33;24.40;24.90
19359;DHT22;9815;52.334;20.890;2023-06-24T08:35:04;24.40;24.50
19359;DHT22;9815;52.334;20.890;2023-06-24T08:37:33;24.60;25.00
19359;DHT22;9815;52.334;20.890;2023-06-24T08:40:02;24.30;25.40
19359;DHT22;9815;52.334;20.890;2023-06-24T08:42:32;24.30;25.80
19359;DHT22;9815;52.334;20.890;2023-06-24T08:45:00;24.40;25.40
19359;DHT22;9815;52.334;20.890;2023-06-24T08:47:29;24.10;25.60
19359;DHT22;9815;52.334;20.890;2023-06-24T08:50:03;24.10;25.50
19359;DHT22;9815;52.334;20.890;2023-06-24T08:52:34;24.20;24.70
19359;DHT22;9815;52.334;20.890;2023-06-24T08:55:05;24.30;25.70
19359;DHT22;9815;52.334;20.890;2023-06-24T08:57:36;24.40;25.70
19359;DHT22;9815;52.334;20.890;2023-06-24T09:00:06;24.10;25.30
19359;DHT22;9815;52.334;20.890;2023-06-24T09:02:37;24.20;25.90
19359;DHT22;9815;52.334;20.890;2023-06-24T09:05:08;24.20;26.80
19359;DHT22;9815;52.334;20.890;2023-06-24T09:07:37;23.90;25.00
19359;DHT22;9815;52.334;20.890;2023-06-24T09:10:05;23.80;25.40
19359;DHT22;9815;52.334;20.890;2023-06-24T09:12:34;23.80;26.20
19359;DHT22;9815;52.334;20.890;2023-06-24T09:15:03;23.70;26.20
19359;DHT22;9815;52.334;20.890;2023-06-24T09:17:32;23.60;26.40
19359;DHT22;9815;52.334;20.890;2023-06-24T09:20:04;23.70;27.50
19359;DHT22;9815;52.334;20.890;2023-06-24T09:22:40;23.80;26.80
19359;DHT22;9815;52.334;20.890;2023-06-24T09:25:08;24.10;26.00
19359;DHT22;9815;52.334;20.890;2023-06-24T09:27:36;24.40;26.00
19359;DHT22;9815;52.334;20.890;2023-06-24T09:30:17;24.30;25.40
19359;DHT22;9815;52.334;20.890;2023-06-24T09:32:47;24.40;24.50
19359;DHT22;9815;52.334;20.890;2023-06-24T09:35:18;24.50;24.20
19359;DHT22;9815;52.334;20.890;2023-06-24T09:37:51;24.40;24.30
19359;DHT22;9815;52.334;20.890;2023-06-24T09:40:20;24.30;24.30
19359;DHT22;9815;52.334;20.890;2023-06-24T09:42:52;24.40;25.00
19359;DHT22;9815;52.334;20.890;2023-06-24T09:45:25;24.50;25.10
19359;DHT22;9815;52.334;20.890;2023-06-24T09:47:53;24.60;22.60
19359;DHT22;9815;52.334;20.890;2023-06-24T09:50:22;24.60;22.60
19359;DHT22;9815;52.334;20.890;2023-06-24T09:52:52;24.70;22.50
19359;DHT22;9815;52.334;20.890;2023-06-24T09:55:21;24.70;22.40
19359;DHT22;9815;52.334;20.890;2023-06-24T09:57:51;24.60;23.20
19359;DHT22;9815;52.334;20.890;2023-06-24T10:00:21;24.80;23.00
19359;DHT22;9815;52.334;20.890;2023-06-24T10:02:53;25.10;22.20
19359;DHT22;9815;52.334;20.890;2023-06-24T10:05:27;25.00;22.00
19359;DHT22;9815;52.334;20.890;2023-06-24T10:07:56;25.00;23.00
19359;DHT22;9815;52.334;20.890;2023-06-24T10:10:24;25.00;22.10
19359;DHT22;9815;52.334;20.890;2023-06-24T10:12:53;24.90;22.20
19359;DHT22;9815;52.334;20.890;2023-06-24T10:15:22;24.70;22.10
19359;DHT22;9815;52.334;20.890;2023-06-24T10:17:51;24.80;23.00
19359;DHT22;9815;52.334;20.890;2023-06-24T10:20:40;25.10;23.10
19359;DHT22;9815;52.334;20.890;2023-06-24T10:23:10;25.30;22.20
19359;DHT22;9815;52.334;20.890;2023-06-24T10:25:39;25.30;22.90
19359;DHT22;9815;52.334;20.890;2023-06-24T10:28:08;25.60;21.70
19359;DHT22;9815;52.334;20.890;2023-06-24T10:30:37;25.90;22.10
19359;DHT22;9815;52.334;20.890;2023-06-24T10:33:10;25.70;22.90
19359;DHT22;9815;52.334;20.890;2023-06-24T10:35:42;25.60;22.60
19359;DHT22;9815;52.334;20.890;2023-06-24T10:38:12;25.10;22.90
19359;DHT22;9815;52.334;20.890;2023-06-24T10:40:42;25.10;22.20
19359;DHT22;9815;52.334;20.890;2023-06-24T10:43:26;25.10;21.50
19359;DHT22;9815;52.334;20.890;2023-06-24T10:45:56;25.00;21.20
19359;DHT22;9815;52.334;20.890;2023-06-24T10:48:27;24.90;21.30
19359;DHT22;9815;52.334;20.890;2023-06-24T10:50:55;24.60;22.90
19359;DHT22;9815;52.334;20.890;2023-06-24T10:53:25;24.00;22.80
19359;DHT22;9815;52.334;20.890;2023-06-24T10:55:57;24.00;23.40
19359;DHT22;9815;52.334;20.890;2023-06-24T10:58:27;23.90;23.10
19359;DHT22;9815;52.334;20.890;2023-06-24T11:01:06;23.90;24.60
19359;DHT22;9815;52.334;20.890;2023-06-24T11:03:35;24.00;23.80
19359;DHT22;9815;52.334;20.890;2023-06-24T11:06:04;23.90;23.30
19359;DHT22;9815;52.334;20.890;2023-06-24T11:08:43;23.80;23.90
19359;DHT22;9815;52.334;20.890;2023-06-24T11:11:19;23.70;24.40
19359;DHT22;9815;52.334;20.890;2023-06-24T11:13:50;23.60;25.10
19359;DHT22;9815;52.334;20.890;2023-06-24T11:16:23;23.60;25.90
19359;DHT22;9815;52.334;20.890;2023-06-24T11:18:52;23.50;26.70
19359;DHT22;9815;52.334;20.890;2023-06-24T11:21:37;23.30;27.10
19359;DHT22;9815;52.334;20.890;2023-06-24T11:24:24;23.30;26.60
19359;DHT22;9815;52.334;20.890;2023-06-24T11:27:01;23.30;26.40
19359;DHT22;9815;52.334;20.890;2023-06-24T11:29:36;23.20;25.80
19359;DHT22;9815;52.334;20.890;2023-06-24T11:32:08;23.20;26.70
19359;DHT22;9815;52.334;20.890;2023-06-24T11:34:37;23.20;25.60
19359;DHT22;9815;52.334;20.890;2023-06-24T11:37:11;23.10;25.80
19359;DHT22;9815;52.334;20.890;2023-06-24T11:39:41;23.10;25.70
19359;DHT22;9815;52.334;20.890;2023-06-24T11:42:11;23.10;25.80
19359;DHT22;9815;52.334;20.890;2023-06-24T11:44:43;23.00;26.50
19359;DHT22;9815;52.334;20.890;2023-06-24T11:47:12;23.00;26.70
19359;DHT22;9815;52.334;20.890;2023-06-24T11:49:51;23.00;27.80
19359;DHT22;9815;52.334;20.890;2023-06-24T11:52:31;23.00;27.20
19359;DHT22;9815;52.334;20.890;2023-06-24T11:55:02;23.00;28.20
19359;DHT22;9815;52.334;20.890;2023-06-24T11:57:50;23.10;28.90
19359;DHT22;9815;52.334;20.890;2023-06-24T12:00:26;23.20;27.50
19359;DHT22;9815;52.334;20.890;2023-06-24T12:02:59;23.10;27.70
19359;DHT22;9815;52.334;20.890;2023-06-24T12:05:30;23.10;27.60
19359;DHT22;9815;52.334;20.890;2023-06-24T12:08:04;23.20;27.30
19359;DHT22;9815;52.334;20.890;2023-06-24T12:10:42;23.10;27.10
19359;DHT22;9815;52.334;20.890;2023-06-24T12:13:17;23.10;28.00
19359;DHT22;9815;52.334;20.890;2023-06-24T12:15:50;23.10;27.50
19359;DHT22;9815;52.334;20.890;2023-06-24T12:18:23;23.10;27.10
19359;DHT22;9815;52.334;20.890;2023-06-24T12:20:55;23.10;27.40
19359;DHT22;9815;52.334;20.890;2023-06-24T12:23:24;23.20;27.40
19359;DHT22;9815;52.334;20.890;2023-06-24T12:25:59;23.20;27.70
19359;DHT22;9815;52.334;20.890;2023-06-24T12:28:29;23.10;27.20
19359;DHT22;9815;52.334;20.890;2023-06-24T12:30:57;23.10;27.20
19359;DHT22;9815;52.334;20.890;2023-06-24T12:33:26;23.00;27.40
19359;DHT22;9815;52.334;20.890;2023-06-24T12:35:54;22.90;27.70
19359;DHT22;9815;52.334;20.890;2023-06-24T12:38:22;22.80;28.10
19359;DHT22;9815;52.334;20.890;2023-06-24T12:40:50;22.90;29.50
19359;DHT22;9815;52.334;20.890;2023-06-24T12:43:20;23.00;28.90
19359;DHT22;9815;52.334;20.890;2023-06-24T12:45:48;23.10;28.50
19359;DHT22;9815;52.334;20.890;2023-06-24T12:48:18;23.10;28.70
19359;DHT22;9815;52.334;20.890;2023-06-24T12:50:46;23.30;29.10
19359;DHT22;9815;52.334;20.890;2023-06-24T12:53:15;23.70;29.20
19359;DHT22;9815;52.334;20.890;2023-06-24T12:55:43;24.10;28.70
19359;DHT22;9815;52.334;20.890;2023-06-24T12:58:13;24.50;27.70
19359;DHT22;9815;52.334;20.890;2023-06-24T13:00:42;25.40;26.10
19359;DHT22;9815;52.334;20.890;2023-06-24T13:03:10;25.50;24.90
19359;DHT22;9815;52.334;20.890;2023-06-24T13:05:38;24.90;24.70
19359;DHT22;9815;52.334;20.890;2023-06-24T13:08:07;24.80;24.00
19359;DHT22;9815;52.334;20.890;2023-06-24T13:10:37;24.60;24.10
19359;DHT22;9815;52.334;20.890;2023-06-24T13:13:06;24.40;24.50
19359;DHT22;9815;52.334;20.890;2023-06-24T13:15:34;24.30;24.80
19359;DHT22;9815;52.334;20.890;2023-06-24T13:18:03;24.10;24.90
19359;DHT22;9815;52.334;20.890;2023-06-24T13:20:32;24.00;24.50
19359;DHT22;9815;52.334;20.890;2023-06-24T13:23:00;24.00;24.70
19359;DHT22;9815;52.334;20.890;2023-06-24T13:25:28;23.90;24.80
19359;DHT22;9815;52.334;20.890;2023-06-24T13:27:56;23.70;23.60
19359;DHT22;9815;52.334;20.890;2023-06-24T13:30:25;23.70;24.30
19359;DHT22;9815;52.334;20.890;2023-06-24T13:32:53;23.60;23.90
19359;DHT22;9815;52.334;20.890;2023-06-24T13:35:22;23.30;23.90
19359;DHT22;9815;52.334;20.890;2023-06-24T13:37:50;23.30;24.90
19359;DHT22;9815;52.334;20.890;2023-06-24T13:40:19;23.20;25.50
19359;DHT22;9815;52.334;20.890;2023-06-24T13:42:47;23.30;26.10
19359;DHT22;9815;52.334;20.890;2023-06-24T13:45:16;23.40;25.90
19359;DHT22;9815;52.334;20.890;2023-06-24T13:47:44;23.40;26.10
19359;DHT22;9815;52.334;20.890;2023-06-24T13:50:12;23.30;26.20
19359;DHT22;9815;52.334;20.890;2023-06-24T13:52:42;23.20;26.40
19359;DHT22;9815;52.334;20.890;2023-06-24T13:55:10;23.10;27.10
19359;DHT22;9815;52.334;20.890;2023-06-24T13:57:38;23.00;27.40
19359;DHT22;9815;52.334;20.890;2023-06-24T14:00:07;23.00;27.30
19359;DHT22;9815;52.334;20.890;2023-06-24T14:02:39;22.90;28.00
19359;DHT22;9815;52.334;20.890;2023-06-24T14:05:08;22.80;28.40
19359;DHT22;9815;52.334;20.890;2023-06-24T14:07:36;22.70;28.50
19359;DHT22;9815;52.334;20.890;2023-06-24T14:10:07;22.70;29.00
19359;DHT22;9815;52.334;20.890;2023-06-24T14:12:35;22.50;29.10
19359;DHT22;9815;52.334;20.890;2023-06-24T14:15:05;22.60;29.10
19359;DHT22;9815;52.334;20.890;2023-06-24T14:17:33;22.50;29.40
19359;DHT22;9815;52.334;20.890;2023-06-24T14:20:01;22.50;29.20
19359;DHT22;9815;52.334;20.890;2023-06-24T14:22:30;22.50;29.40
19359;DHT22;9815;52.334;20.890;2023-06-24T14:24:58;22.50;29.20
19359;DHT22;9815;52.334;20.890;2023-06-24T14:27:28;22.50;29.40
19359;DHT22;9815;52.334;20.890;2023-06-24T14:29:56;22.60;29.60
19359;DHT22;9815;52.334;20.890;2023-06-24T14:32:24;22.60;28.90
19359;DHT22;9815;52.334;20.890;2023-06-24T14:34:54;22.60;28.70
19359;DHT22;9815;52.334;20.890;2023-06-24T14:37:22;22.60;28.90
19359;DHT22;9815;52.334;20.890;2023-06-24T14:39:50;22.50;29.80
19359;DHT22;9815;52.334;20.890;2023-06-24T14:42:18;22.60;29.30
19359;DHT22;9815;52.334;20.890;2023-06-24T14:44:48;22.60;29.50
19359;DHT22;9815;52.334;20.890;2023-06-24T14:47:16;22.50;29.50
19359;DHT22;9815;52.334;20.890;2023-06-24T14:49:44;22.40;29.90
19359;DHT22;9815;52.334;20.890;2023-06-24T14:52:12;22.40;30.80
19359;DHT22;9815;52.334;20.890;2023-06-24T14:54:40;22.40;31.80
19359;DHT22;9815;52.334;20.890;2023-06-24T14:57:08;22.30;33.20
19359;DHT22;9815;52.334;20.890;2023-06-24T14:59:36;22.20;34.90
19359;DHT22;9815;52.334;20.890;2023-06-24T15:02:06;22.10;36.90
19359;DHT22;9815;52.334;20.890;2023-06-24T15:04:35;22.00;38.80
19359;DHT22;9815;52.334;20.890;2023-06-24T15:07:03;22.00;41.60
19359;DHT22;9815;52.334;20.890;2023-06-24T15:09:32;21.90;44.50
19359;DHT22;9815;52.334;20.890;2023-06-24T15:12:05;21.80;48.50
19359;DHT22;9815;52.334;20.890;2023-06-24T15:14:33;21.80;52.60
19359;DHT22;9815;52.334;20.890;2023-06-24T15:17:01;21.70;57.50
19359;DHT22;9815;52.334;20.890;2023-06-24T15:19:31;21.50;62.00
19359;DHT22;9815;52.334;20.890;2023-06-24T15:21:59;21.50;66.00
19359;DHT22;9815;52.334;20.890;2023-06-24T15:24:27;21.40;69.40
19359;DHT22;9815;52.334;20.890;2023-06-24T15:26:56;21.40;73.30
19359;DHT22;9815;52.334;20.890;2023-06-24T15:29:25;21.40;74.00
19359;DHT22;9815;52.334;20.890;2023-06-24T15:31:53;21.50;76.80
19359;DHT22;9815;52.334;20.890;2023-06-24T15:34:21;21.60;75.40
19359;DHT22;9815;52.334;20.890;2023-06-24T15:36:50;21.70;75.50
19359;DHT22;9815;52.334;20.890;2023-06-24T15:39:18;21.70;74.20
19359;DHT22;9815;52.334;20.890;2023-06-24T15:41:47;21.80;74.30
19359;DHT22;9815;52.334;20.890;2023-06-24T15:44:16;21.80;72.00
19359;DHT22;9815;52.334;20.890;2023-06-24T15:46:45;21.90;67.80
19359;DHT22;9815;52.334;20.890;2023-06-24T15:49:14;21.80;69.00
19359;DHT22;9815;52.334;20.890;2023-06-24T15:51:42;21.80;66.70
19359;DHT22;9815;52.334;20.890;2023-06-24T15:54:12;21.80;69.70